Time;durP1;ratioP1;P1;durP2;ratioP2;P2;SDS_P1;SDS_P2;PMS_P1;PMS_P2;Temp;Humidity;BMP_temperature;BMP_pressure;BME280_temperature;BME280_humidity;BME280_pressure;Samples;Min_cycle;Max_cycle;Signal;HPM_P1;HPM_P2
2022/06/19 00:01:57;;;;;;;10.47;5.43;;;24.30;92.80;;;;;;4147097;28;20231;-78
2022/06/19 00:03:59;;;;;;;7.77;5.37;;;24.20;93.20;;;;;;4145651;28;20259;-78
2022/06/19 00:06:04;;;;;;;10.77;5.80;;;24.20;93.60;;;;;;4137445;28;20218;-78
2022/06/19 00:08:06;;;;;;;10.37;5.57;;;24.20;93.60;;;;;;4149332;28;20239;-78
2022/06/19 00:10:09;;;;;;;9.93;5.40;;;24.10;93.70;;;;;;4149594;28;20275;-78
2022/06/19 00:12:12;;;;;;;11.00;6.10;;;24.10;93.10;;;;;;4145396;28;20282;-78
2022/06/19 00:14:14;;;;;;;10.90;5.33;;;24.10;93.30;;;;;;4146513;28;20303;-78
2022/06/19 00:16:17;;;;;;;11.70;5.83;;;24.00;92.70;;;;;;4124967;28;20208;-78
2022/06/19 00:18:19;;;;;;;8.27;5.33;;;24.00;93.00;;;;;;4151946;28;20286;-79
2022/06/19 00:20:21;;;;;;;8.33;4.70;;;24.00;93.60;;;;;;4148066;28;20213;-78
2022/06/19 00:22:24;;;;;;;11.23;5.27;;;23.90;94.10;;;;;;4148879;28;20306;-78
2022/06/19 00:24:29;;;;;;;11.17;4.97;;;23.90;94.20;;;;;;4147342;28;20278;-78
2022/06/19 00:26:31;;;;;;;11.33;4.70;;;23.90;94.00;;;;;;4140256;28;20246;-78
2022/06/19 00:28:32;;;;;;;8.87;4.30;;;23.90;93.80;;;;;;4144914;28;20642;-78
2022/06/19 00:30:35;;;;;;;8.47;4.03;;;23.90;94.60;;;;;;4139724;28;20589;-78
2022/06/19 00:32:37;;;;;;;6.37;3.60;;;23.80;95.60;;;;;;4139886;28;20907;-79
2022/06/19 00:34:39;;;;;;;7.87;4.37;;;23.70;95.30;;;;;;4138936;28;20315;-78
2022/06/19 00:36:43;;;;;;;13.10;5.03;;;23.80;95.50;;;;;;4140588;28;20287;-78
2022/06/19 00:38:46;;;;;;;11.27;4.80;;;23.70;97.60;;;;;;4147909;28;20231;-79
2022/06/19 00:40:48;;;;;;;13.40;4.13;;;23.70;97.10;;;;;;4142455;28;20247;-78
2022/06/19 00:42:50;;;;;;;12.60;3.77;;;23.70;97.80;;;;;;4142655;28;20223;-79
2022/06/19 00:44:52;;;;;;;8.17;3.67;;;23.60;97.50;;;;;;4146135;28;20219;-79
2022/06/19 00:46:56;;;;;;;10.47;3.93;;;23.60;98.10;;;;;;4145115;28;20214;-79
2022/06/19 00:48:58;;;;;;;6.90;3.30;;;23.60;98.10;;;;;;4138888;28;20207;-79
2022/06/19 00:51:02;;;;;;;9.80;3.50;;;23.50;98.80;;;;;;4143825;28;20704;-79
2022/06/19 00:53:10;;;;;;;9.13;4.10;;;23.50;98.30;;;;;;4143673;28;20342;-79
2022/06/19 00:55:18;;;;;;;7.87;3.73;;;23.50;98.10;;;;;;4137946;28;20226;-78
2022/06/19 00:57:21;;;;;;;8.77;3.83;;;23.40;98.70;;;;;;4129808;28;20294;-79
2022/06/19 00:59:23;;;;;;;9.53;3.77;;;23.50;98.60;;;;;;4138822;28;20222;-78
2022/06/19 01:01:28;;;;;;;7.87;3.30;;;23.40;99.10;;;;;;4137412;28;20662;-78
2022/06/19 01:03:37;;;;;;;10.67;3.67;;;23.40;98.80;;;;;;4134108;28;20215;-78
2022/06/19 01:05:43;;;;;;;13.43;4.00;;;23.40;98.90;;;;;;4139160;28;20217;-78
2022/06/19 01:07:46;;;;;;;9.73;3.30;;;23.30;98.70;;;;;;4143340;28;20215;-78
2022/06/19 01:09:48;;;;;;;10.63;3.23;;;23.30;98.70;;;;;;4144568;28;20209;-78
2022/06/19 01:11:54;;;;;;;13.97;3.30;;;23.30;98.70;;;;;;4140820;28;21037;-78
2022/06/19 01:13:56;;;;;;;13.87;3.43;;;23.20;98.90;;;;;;4141722;28;20244;-78
2022/06/19 01:16:48;;;;;;;15.13;3.70;;;23.20;98.90;;;;;;4145526;28;20667;-78
2022/06/19 01:19:41;;;;;;;16.73;3.20;;;23.10;99.20;;;;;;4145467;28;20253;-78
2022/06/19 01:22:32;;;;;;;11.03;3.87;;;23.10;98.90;;;;;;4138115;28;20235;-78
2022/06/19 01:25:25;;;;;;;13.60;4.07;;;23.00;98.70;;;;;;4141452;28;20204;-78
2022/06/19 01:31:27;;;;;;;14.23;3.53;;;22.90;98.40;;;;;;4142096;28;20218;-77
2022/06/19 01:34:32;;;;;;;9.53;2.87;;;22.90;98.10;;;;;;4135942;28;20722;-78
2022/06/19 01:37:25;;;;;;;7.90;2.73;;;22.90;97.70;;;;;;4145041;28;20212;-77
2022/06/19 01:40:17;;;;;;;5.03;2.20;;;22.80;98.00;;;;;;4142246;28;20212;-79
2022/06/19 01:43:10;;;;;;;7.67;2.57;;;22.80;97.80;;;;;;4143451;28;20231;-78
2022/06/19 03:55:40;;;;;;;10.90;2.60;;;22.00;92.00;;;;;;4148216;28;20306;-80
2022/06/19 03:57:42;;;;;;;7.53;2.70;;;22.10;92.20;;;;;;4148914;28;20195;-79
2022/06/19 03:59:44;;;;;;;11.77;3.67;;;22.10;92.00;;;;;;4148460;28;20212;-77
2022/06/19 04:01:46;;;;;;;12.23;2.90;;;22.10;92.20;;;;;;4142650;28;20232;-77
2022/06/19 04:03:49;;;;;;;7.33;3.10;;;22.10;91.90;;;;;;4150377;28;20322;-77
2022/06/19 04:05:51;;;;;;;8.43;2.57;;;22.10;91.80;;;;;;4135899;28;20229;-78
2022/06/19 04:07:53;;;;;;;8.63;3.10;;;22.10;92.10;;;;;;4147443;28;20278;-77
2022/06/19 04:09:59;;;;;;;13.80;3.30;;;22.10;91.70;;;;;;4145666;28;20221;-78
2022/06/19 04:12:02;;;;;;;11.33;3.50;;;22.20;91.60;;;;;;4147663;28;20295;-77
2022/06/19 04:14:04;;;;;;;9.33;3.13;;;22.20;91.60;;;;;;4146968;28;20217;-77
2022/06/19 04:16:09;;;;;;;7.43;3.13;;;22.20;91.60;;;;;;4141649;28;20319;-78
2022/06/19 04:18:11;;;;;;;14.13;3.23;;;22.20;91.80;;;;;;4154696;28;20616;-78
2022/06/19 04:20:14;;;;;;;12.23;3.20;;;22.20;91.60;;;;;;4157093;28;20240;-78
2022/06/19 04:22:16;;;;;;;6.50;2.87;;;22.30;91.80;;;;;;4142774;28;20247;-77
2022/06/19 04:24:19;;;;;;;10.33;3.40;;;22.30;91.50;;;;;;4157527;28;20217;-77
2022/06/19 04:26:22;;;;;;;10.67;3.53;;;22.30;91.20;;;;;;4146045;28;20215;-77
2022/06/19 04:28:26;;;;;;;14.03;3.37;;;22.40;91.30;;;;;;4142184;28;20255;-77
2022/06/19 04:30:28;;;;;;;11.50;3.43;;;22.40;91.40;;;;;;4137014;28;20217;-77
2022/06/19 04:32:30;;;;;;;9.80;3.57;;;22.40;91.30;;;;;;4145649;28;20243;-77
2022/06/19 04:34:32;;;;;;;9.07;2.90;;;22.40;91.20;;;;;;4146542;28;20209;-77
2022/06/19 04:36:38;;;;;;;6.10;2.60;;;22.40;91.20;;;;;;4136777;28;20232;-78
2022/06/19 04:38:42;;;;;;;11.27;2.57;;;22.50;91.60;;;;;;4146825;28;20774;-78
2022/06/19 04:40:45;;;;;;;10.83;2.80;;;22.50;91.40;;;;;;4145300;28;20878;-77
2022/06/19 04:42:46;;;;;;;11.37;3.00;;;22.50;90.80;;;;;;4143494;28;20609;-77
2022/06/19 04:44:50;;;;;;;8.40;2.70;;;22.50;91.20;;;;;;4148877;28;20289;-77
2022/06/19 04:46:52;;;;;;;7.87;2.77;;;22.60;91.10;;;;;;4136882;28;20268;-78
2022/06/19 04:48:54;;;;;;;11.50;2.50;;;22.60;91.20;;;;;;4132899;28;20225;-77
2022/06/19 04:50:56;;;;;;;18.83;3.53;;;22.70;91.00;;;;;;4139791;28;20300;-78
2022/06/19 04:52:58;;;;;;;8.93;2.70;;;22.70;90.60;;;;;;4140456;28;20707;-77
2022/06/19 04:54:59;;;;;;;9.23;2.63;;;22.70;90.60;;;;;;4148596;28;20290;-77
2022/06/19 04:57:01;;;;;;;8.23;3.70;;;22.80;90.50;;;;;;4151552;28;20679;-78
2022/06/19 04:59:03;;;;;;;7.60;3.20;;;22.80;90.50;;;;;;4137727;28;20215;-78
2022/06/19 05:01:11;;;;;;;9.07;3.00;;;22.80;90.20;;;;;;4146835;28;20269;-78
2022/06/19 05:03:13;;;;;;;5.90;2.70;;;22.90;90.00;;;;;;4145906;28;20329;-78
2022/06/19 05:05:18;;;;;;;6.90;3.10;;;22.90;89.10;;;;;;4140108;28;20884;-78
2022/06/19 05:07:20;;;;;;;8.50;2.90;;;22.90;89.20;;;;;;4145389;28;20251;-77
2022/06/19 05:09:22;;;;;;;9.47;2.90;;;23.00;88.70;;;;;;4146375;28;20231;-78
2022/06/19 05:11:26;;;;;;;6.30;2.93;;;23.00;88.40;;;;;;4154855;28;20218;-78
2022/06/19 05:13:29;;;;;;;10.50;2.97;;;23.10;88.30;;;;;;4145373;28;20250;-78
2022/06/19 05:15:30;;;;;;;11.33;2.77;;;23.10;87.80;;;;;;4146485;28;20306;-78
2022/06/19 05:17:34;;;;;;;6.40;2.80;;;23.10;87.10;;;;;;4146061;28;20210;-77
2022/06/19 05:19:40;;;;;;;4.97;2.60;;;23.20;86.20;;;;;;4149886;28;20297;-77
2022/06/19 05:21:42;;;;;;;5.57;2.87;;;23.20;86.30;;;;;;4147034;28;20612;-77
2022/06/19 05:23:46;;;;;;;9.37;2.53;;;23.20;86.60;;;;;;4150044;28;20891;-78
2022/06/19 05:25:48;;;;;;;5.73;2.57;;;23.30;86.20;;;;;;4144842;28;20237;-78
2022/06/19 05:27:50;;;;;;;9.30;3.03;;;23.30;85.30;;;;;;4144835;28;20239;-78
2022/06/19 05:29:52;;;;;;;6.97;2.57;;;23.40;84.80;;;;;;4154019;28;20261;-77
2022/06/19 05:31:54;;;;;;;4.17;2.20;;;23.40;85.20;;;;;;4144617;28;20737;-78
2022/06/19 05:33:57;;;;;;;5.57;2.43;;;23.50;84.70;;;;;;4149174;28;20245;-77
2022/06/19 05:36:00;;;;;;;8.60;2.80;;;23.50;84.40;;;;;;4153763;28;20211;-77
2022/06/19 05:38:01;;;;;;;7.03;2.73;;;23.70;83.60;;;;;;4148124;28;20216;-78
2022/06/19 05:40:04;;;;;;;7.47;2.60;;;23.60;83.50;;;;;;4145940;28;20212;-78
2022/06/19 05:42:07;;;;;;;6.77;3.00;;;23.60;83.50;;;;;;4147090;28;22177;-78
2022/06/19 05:44:11;;;;;;;8.03;2.50;;;23.70;81.30;;;;;;4144851;28;20295;-78
2022/06/19 05:46:16;;;;;;;10.33;3.27;;;23.80;82.10;;;;;;4147665;28;20282;-78
2022/06/19 05:48:18;;;;;;;5.93;2.70;;;23.80;81.70;;;;;;4149348;28;20305;-77
2022/06/19 05:50:22;;;;;;;3.67;2.20;;;23.90;82.00;;;;;;4141489;28;20708;-77
2022/06/19 05:52:25;;;;;;;7.97;2.63;;;23.90;81.70;;;;;;4151110;28;20956;-78
2022/06/19 05:54:27;;;;;;;5.10;2.40;;;23.90;81.90;;;;;;4145259;28;20242;-78
2022/06/19 05:56:30;;;;;;;5.57;2.77;;;24.00;81.30;;;;;;4146025;28;20215;-78
2022/06/19 05:58:33;;;;;;;8.40;3.03;;;24.00;80.30;;;;;;4146876;28;20200;-78
2022/06/19 06:00:35;;;;;;;10.37;2.90;;;24.10;81.00;;;;;;4137668;28;20213;-78
2022/06/19 06:02:37;;;;;;;8.67;2.50;;;24.10;77.70;;;;;;4148174;28;20227;-78
2022/06/19 06:04:39;;;;;;;7.20;2.70;;;24.20;78.80;;;;;;4143496;28;20200;-78
2022/06/19 06:06:42;;;;;;;10.47;2.57;;;24.30;77.20;;;;;;4140360;28;20208;-77
2022/06/19 06:08:45;;;;;;;10.53;4.40;;;24.40;74.40;;;;;;4146150;28;20281;-77
2022/06/19 06:10:49;;;;;;;13.87;4.70;;;24.40;72.40;;;;;;4138496;28;20247;-78
2022/06/19 06:12:51;;;;;;;8.63;3.13;;;24.50;71.20;;;;;;4139485;28;20327;-77
2022/06/19 06:14:53;;;;;;;9.83;2.87;;;24.60;70.40;;;;;;4156196;28;20242;-77
2022/06/19 06:16:55;;;;;;;7.97;2.93;;;24.70;69.00;;;;;;4140420;28;20274;-77
2022/06/19 06:18:57;;;;;;;7.40;2.83;;;24.80;69.30;;;;;;4141813;28;20215;-78
2022/06/19 06:21:01;;;;;;;9.63;2.90;;;24.80;70.00;;;;;;4139060;28;20584;-77
2022/06/19 06:23:04;;;;;;;9.73;2.70;;;24.90;68.30;;;;;;4144426;28;20323;-77
2022/06/19 06:25:07;;;;;;;14.07;3.30;;;25.00;67.30;;;;;;4146120;28;20670;-77
2022/06/19 06:27:09;;;;;;;6.67;2.60;;;25.00;67.40;;;;;;4140672;28;20293;-77
2022/06/19 06:29:11;;;;;;;10.07;2.90;;;25.10;67.60;;;;;;4148425;28;20210;-77
2022/06/19 06:31:13;;;;;;;8.53;2.87;;;25.10;67.60;;;;;;4134371;28;20264;-77
2022/06/19 06:33:15;;;;;;;8.43;2.80;;;25.20;67.10;;;;;;4146315;28;20227;-77
2022/06/19 06:35:17;;;;;;;5.33;2.80;;;25.20;66.30;;;;;;4138508;28;20231;-77
2022/06/19 06:37:19;;;;;;;6.83;2.63;;;25.30;67.00;;;;;;4137883;28;20231;-77
2022/06/19 06:39:22;;;;;;;12.83;3.00;;;25.30;68.00;;;;;;4144415;28;20219;-77
2022/06/19 06:41:25;;;;;;;10.90;2.70;;;25.40;68.40;;;;;;4138339;28;20322;-77
2022/06/19 06:43:27;;;;;;;6.40;2.53;;;25.40;67.60;;;;;;4139931;28;20292;-77
2022/06/19 06:45:30;;;;;;;9.33;2.60;;;25.50;68.90;;;;;;4141144;28;20234;-77
2022/06/19 06:47:32;;;;;;;7.23;2.50;;;25.50;66.50;;;;;;4141035;28;20200;-77
2022/06/19 06:49:34;;;;;;;9.03;2.73;;;25.50;66.40;;;;;;4147182;28;20295;-77
2022/06/19 06:51:35;;;;;;;5.43;2.60;;;25.60;65.60;;;;;;4144503;28;20200;-77
2022/06/19 06:53:37;;;;;;;10.23;2.70;;;25.70;62.70;;;;;;4155197;28;20531;-77
2022/06/19 06:55:42;;;;;;;6.23;2.60;;;25.80;62.70;;;;;;4139365;28;20574;-77
2022/06/19 06:57:44;;;;;;;12.03;3.07;;;25.90;61.20;;;;;;4133644;28;20266;-77
2022/06/19 06:59:46;;;;;;;7.73;2.37;;;25.90;61.00;;;;;;4137787;28;20572;-77
2022/06/19 07:01:48;;;;;;;4.63;2.50;;;26.10;59.40;;;;;;4132919;28;20225;-77
2022/06/19 07:03:54;;;;;;;7.13;2.60;;;26.10;58.90;;;;;;4142218;28;20239;-77
2022/06/19 07:05:56;;;;;;;9.00;2.57;;;26.20;57.20;;;;;;4139518;28;20567;-77
2022/06/19 07:07:59;;;;;;;4.80;2.27;;;26.40;55.40;;;;;;4139998;28;20226;-78
2022/06/19 07:10:01;;;;;;;8.97;2.73;;;26.50;54.20;;;;;;4142888;28;20208;-78
2022/06/19 07:12:05;;;;;;;6.47;2.57;;;26.60;54.20;;;;;;4148204;28;20295;-78
2022/06/19 07:14:07;;;;;;;7.27;2.57;;;26.70;53.10;;;;;;4147433;28;20634;-78
2022/06/19 07:16:09;;;;;;;6.13;2.27;;;26.80;52.60;;;;;;4141141;28;20224;-78
2022/06/19 07:18:11;;;;;;;9.63;2.40;;;27.00;51.60;;;;;;4134930;28;20291;-78
2022/06/19 07:20:13;;;;;;;7.80;2.57;;;27.00;50.80;;;;;;4135654;28;20287;-78
2022/06/19 07:22:17;;;;;;;14.13;3.00;;;27.20;48.80;;;;;;4139930;28;20247;-78
2022/06/19 07:24:19;;;;;;;10.00;2.10;;;27.40;46.90;;;;;;4141046;28;20212;-78
2022/06/19 07:26:23;;;;;;;9.90;2.60;;;27.60;46.40;;;;;;4137356;28;20263;-78
2022/06/19 07:28:28;;;;;;;12.60;2.53;;;27.70;45.90;;;;;;4141538;28;21806;-77
2022/06/19 07:30:31;;;;;;;9.07;2.53;;;27.80;45.70;;;;;;4141406;28;20732;-78
2022/06/19 07:32:32;;;;;;;7.83;3.00;;;27.80;45.90;;;;;;4136412;28;20252;-77
2022/06/19 07:34:36;;;;;;;11.20;2.60;;;27.90;45.40;;;;;;4134969;28;20291;-78
2022/06/19 07:36:38;;;;;;;14.23;2.20;;;27.90;45.40;;;;;;4139966;28;20306;-78
2022/06/19 07:38:43;;;;;;;12.30;2.33;;;28.10;44.50;;;;;;4141321;28;20207;-77
2022/06/19 07:40:47;;;;;;;10.83;2.80;;;28.20;44.80;;;;;;4135596;28;20217;-78
2022/06/19 07:42:49;;;;;;;12.23;2.23;;;28.30;44.50;;;;;;4139313;28;20226;-77
2022/06/19 07:44:52;;;;;;;8.20;2.47;;;28.40;44.50;;;;;;4139534;28;20208;-78
2022/06/19 07:51:38;;;;;;;10.23;2.73;;;28.60;44.50;;;;;;4123974;28;20227;-77
2022/06/19 07:53:40;;;;;;;9.67;2.50;;;28.60;44.60;;;;;;4144634;28;20290;-77
2022/06/19 07:55:42;;;;;;;12.73;2.77;;;28.70;43.80;;;;;;4144800;28;20712;-77
2022/06/19 07:57:44;;;;;;;15.90;2.50;;;28.80;42.80;;;;;;4139858;28;20676;-77
2022/06/19 07:59:46;;;;;;;17.73;2.93;;;28.90;42.40;;;;;;4148124;28;20211;-78
2022/06/19 08:01:50;;;;;;;14.53;2.30;;;29.00;41.70;;;;;;4138093;28;20235;-77
2022/06/19 08:03:52;;;;;;;10.90;2.85;;;29.10;40.90;;;;;;4138266;28;20592;-77
2022/06/19 08:05:54;;;;;;;13.23;2.80;;;29.10;40.50;;;;;;4142508;28;20231;-77
2022/06/19 08:07:57;;;;;;;14.40;2.47;;;29.20;40.00;;;;;;4141135;28;20287;-77
2022/06/19 08:09:59;;;;;;;9.27;2.43;;;29.40;40.50;;;;;;4137975;28;20218;-77
2022/06/19 08:12:01;;;;;;;13.75;2.88;;;29.40;40.10;;;;;;4144230;28;20837;-77
2022/06/19 08:14:03;;;;;;;11.05;2.65;;;29.50;39.60;;;;;;4144917;28;20299;-77
2022/06/19 08:16:07;;;;;;;9.63;2.40;;;29.50;39.50;;;;;;4145940;28;20574;-77
2022/06/19 08:18:11;;;;;;;20.20;2.88;;;29.60;39.30;;;;;;4141108;28;20688;-78
2022/06/19 08:20:14;;;;;;;19.02;3.05;;;29.70;38.70;;;;;;4141002;28;20240;-77
2022/06/19 08:22:16;;;;;;;14.10;3.35;;;29.80;38.30;;;;;;4139857;28;20302;-77
2022/06/19 08:24:18;;;;;;;13.13;2.80;;;29.90;37.80;;;;;;4142201;28;20200;-77
2022/06/19 08:26:20;;;;;;;12.55;2.80;;;30.00;37.40;;;;;;4140523;28;20203;-77
2022/06/19 08:28:28;;;;;;;10.48;2.80;;;30.00;37.20;;;;;;4146206;28;20344;-77
2022/06/19 08:30:32;;;;;;;17.17;3.03;;;30.10;37.70;;;;;;4140804;28;20211;-77
2022/06/19 08:32:36;;;;;;;16.02;3.00;;;30.20;37.30;;;;;;4138773;28;20228;-78
2022/06/19 08:34:39;;;;;;;10.07;2.75;;;30.30;37.00;;;;;;4140954;28;20279;-77
2022/06/19 08:36:41;;;;;;;13.40;2.92;;;30.40;37.40;;;;;;4142237;28;20231;-78
2022/06/19 08:38:47;;;;;;;10.93;2.90;;;30.50;37.30;;;;;;4142241;28;20682;-75
2022/06/19 08:41:06;;;;;;;8.95;2.47;;;30.60;37.30;;;;;;4137931;28;20598;-76
2022/06/19 08:43:21;;;;;;;10.57;2.33;;;30.60;36.60;;;;;;4140564;28;20853;-78
2022/06/19 08:45:35;;;;;;;11.68;2.60;;;30.70;36.60;;;;;;4123066;28;20205;-77
2022/06/19 08:47:59;;;;;;;10.30;2.80;;;30.80;36.10;;;;;;4138093;28;20215;-78
2022/06/19 08:50:15;;;;;;;13.27;3.40;;;30.80;36.40;;;;;;4135548;28;20207;-77
2022/06/19 08:52:27;;;;;;;9.77;3.22;;;30.90;36.50;;;;;;4129735;28;20241;-78
2022/06/19 08:54:44;;;;;;;11.68;2.80;;;31.00;35.80;;;;;;4130590;28;20725;-78
2022/06/19 08:56:58;;;;;;;14.20;2.72;;;31.10;35.50;;;;;;4137143;28;20223;-77
2022/06/19 08:59:05;;;;;;;18.83;3.00;;;31.10;35.70;;;;;;4145937;28;20208;-79
2022/06/19 09:01:17;;;;;;;16.33;2.88;;;31.20;35.30;;;;;;4146941;28;20211;-78
2022/06/19 09:05:36;;;;;;;10.75;2.70;;;31.20;34.90;;;;;;4145574;28;20306;-79
2022/06/19 09:06:01;;;;;;;14.82;2.58;;;31.30;35.40;;;;;;4142210;28;20290;-79
2022/06/19 09:08:27;;;;;;;17.70;2.83;;;31.40;35.40;;;;;;4143393;28;20253;-78
2022/06/19 09:10:41;;;;;;;13.05;2.92;;;31.50;34.80;;;;;;4142471;28;20239;-78
2022/06/19 09:13:02;;;;;;;16.27;2.92;;;31.60;34.80;;;;;;4143029;28;20728;-80
2022/06/19 09:15:12;;;;;;;15.27;2.97;;;31.70;33.90;;;;;;4145862;28;20230;-79
2022/06/19 09:17:21;;;;;;;9.85;2.85;;;31.70;34.00;;;;;;4139994;28;20212;-79
2022/06/19 09:19:32;;;;;;;13.65;3.10;;;31.80;33.40;;;;;;4148393;28;20210;-80
2022/06/19 09:21:50;;;;;;;11.25;2.83;;;31.90;33.50;;;;;;4140887;28;20239;-79
2022/06/19 09:24:19;;;;;;;12.98;3.08;;;32.00;32.80;;;;;;4142144;28;20212;-78
2022/06/19 09:26:26;;;;;;;12.98;2.88;;;32.10;32.50;;;;;;4143831;28;20684;-78
2022/06/19 09:28:37;;;;;;;15.05;3.25;;;32.20;32.80;;;;;;4141650;28;20226;-79
2022/06/19 09:30:43;;;;;;;14.52;3.53;;;32.20;32.90;;;;;;4143384;28;20634;-78
2022/06/19 09:32:50;;;;;;;17.60;3.00;;;32.30;32.10;;;;;;4145747;28;20223;-79
2022/06/19 09:34:57;;;;;;;11.77;2.97;;;32.40;32.00;;;;;;4139686;28;20231;-78
2022/06/19 09:37:05;;;;;;;17.50;3.50;;;32.60;32.20;;;;;;4136245;28;20804;-79
2022/06/19 09:39:13;;;;;;;14.82;2.83;;;32.60;31.90;;;;;;4135460;28;20208;-79
2022/06/19 09:41:24;;;;;;;17.83;3.35;;;32.70;32.10;;;;;;4141119;28;20203;-79
2022/06/19 09:43:32;;;;;;;19.75;3.03;;;32.80;32.00;;;;;;4143613;28;20697;-78
2022/06/19 09:45:40;;;;;;;13.65;3.63;;;32.90;32.50;;;;;;4138735;28;20203;-78
2022/06/19 09:47:47;;;;;;;16.30;3.38;;;33.00;31.10;;;;;;4136372;28;20717;-78
2022/06/19 09:49:54;;;;;;;31.35;4.13;;;33.20;30.30;;;;;;4151781;28;20238;-79
2022/06/19 09:52:04;;;;;;;16.77;3.50;;;33.20;29.80;;;;;;4137449;28;20232;-80
2022/06/19 09:54:12;;;;;;;25.77;4.03;;;33.30;30.00;;;;;;4138710;28;20200;-79
2022/06/19 09:56:22;;;;;;;21.30;3.58;;;33.40;29.90;;;;;;4135808;28;20203;-78
2022/06/19 09:58:28;;;;;;;24.58;3.55;;;33.50;30.00;;;;;;4145846;28;20224;-79
2022/06/19 10:00:34;;;;;;;29.42;5.35;;;33.50;30.00;;;;;;4144938;28;20653;-79
2022/06/19 10:02:44;;;;;;;22.35;4.22;;;33.60;28.40;;;;;;4142265;28;20223;-79
2022/06/19 10:04:49;;;;;;;28.42;4.13;;;33.70;28.30;;;;;;4139691;28;20211;-79
2022/06/19 10:06:58;;;;;;;31.10;4.38;;;33.80;28.30;;;;;;4143433;28;20204;-79
2022/06/19 10:09:05;;;;;;;27.00;4.38;;;33.80;28.20;;;;;;4159800;28;20606;-79
2022/06/19 10:11:11;;;;;;;16.05;3.75;;;33.90;28.10;;;;;;4142914;28;20230;-80
2022/06/19 10:13:19;;;;;;;26.90;4.00;;;34.00;28.00;;;;;;4155362;28;20231;-79
2022/06/19 10:15:28;;;;;;;17.48;3.30;;;34.10;27.90;;;;;;4142732;28;20660;-79
2022/06/19 10:17:35;;;;;;;18.50;3.42;;;34.10;27.90;;;;;;4136184;28;20254;-79
2022/06/19 10:19:45;;;;;;;25.70;3.65;;;34.10;27.80;;;;;;4141470;28;20264;-79
2022/06/19 10:24:23;;;;;;;23.73;4.18;;;34.30;27.90;;;;;;4136873;28;20260;-80
2022/06/19 10:26:34;;;;;;;28.20;4.35;;;34.40;28.20;;;;;;4120979;28;20212;-80
2022/06/19 10:28:58;;;;;;;21.00;3.58;;;34.40;27.70;;;;;;4148569;28;20203;-81
2022/06/19 10:31:10;;;;;;;26.85;4.28;;;34.50;27.90;;;;;;4156782;28;20283;-80
2022/06/19 10:33:25;;;;;;;25.52;3.47;;;34.60;27.90;;;;;;4160910;28;20294;-80
2022/06/19 10:35:33;;;;;;;14.15;3.63;;;34.70;28.10;;;;;;4153892;28;20271;-80
2022/06/19 10:37:45;;;;;;;14.13;2.78;;;34.70;28.10;;;;;;4153479;28;20632;-80
2022/06/19 10:40:02;;;;;;;21.80;3.85;;;34.90;28.50;;;;;;4145764;28;20558;-80
2022/06/19 10:42:13;;;;;;;18.23;3.33;;;34.90;28.30;;;;;;4152664;28;20310;-80
2022/06/19 10:44:20;;;;;;;17.10;3.80;;;34.90;27.80;;;;;;4151645;28;20294;-79
2022/06/19 10:46:26;;;;;;;18.67;3.25;;;35.00;27.90;;;;;;4144050;28;20230;-80
2022/06/19 10:48:33;;;;;;;15.18;3.28;;;35.10;27.90;;;;;;4144505;28;20231;-79
2022/06/19 10:50:42;;;;;;;17.42;3.83;;;35.10;27.90;;;;;;4146051;28;20262;-80
2022/06/19 10:52:53;;;;;;;15.18;3.35;;;35.10;27.90;;;;;;4149264;28;20318;-80
2022/06/19 10:55:09;;;;;;;13.93;3.60;;;35.20;27.70;;;;;;4144417;28;20235;-81
2022/06/19 10:57:17;;;;;;;15.52;3.13;;;35.20;27.70;;;;;;4141305;28;20204;-80
2022/06/19 10:59:21;;;;;;;19.02;3.13;;;35.20;27.80;;;;;;4157771;28;20245;-80
2022/06/19 11:06:14;;;;;;;11.02;2.78;;;35.50;27.70;;;;;;4145250;28;20590;-80
2022/06/19 11:08:19;;;;;;;19.27;3.28;;;35.70;27.80;;;;;;4155943;28;20250;-80
2022/06/19 11:10:31;;;;;;;17.42;3.38;;;35.80;27.60;;;;;;4157224;28;20277;-80
2022/06/19 11:12:37;;;;;;;17.20;3.55;;;35.90;27.40;;;;;;4147122;28;20234;-80
2022/06/19 11:14:48;;;;;;;12.77;3.30;;;35.90;27.30;;;;;;4150930;28;20294;-80
2022/06/19 11:16:56;;;;;;;15.93;3.35;;;36.00;27.20;;;;;;4144113;28;20231;-80
2022/06/19 11:18:58;;;;;;;12.32;3.55;;;36.10;27.30;;;;;;4143662;28;20228;-80
2022/06/19 11:21:03;;;;;;;14.27;3.28;;;36.20;27.40;;;;;;4141420;28;20228;-80
2022/06/19 11:23:08;;;;;;;14.45;3.55;;;36.30;27.70;;;;;;4145547;28;20238;-80
2022/06/19 11:25:38;;;;;;;16.27;3.20;;;36.50;27.50;;;;;;4152844;28;20630;-80
2022/06/19 11:27:49;;;;;;;15.20;3.22;;;36.60;27.20;;;;;;4142347;28;20221;-80
2022/06/19 11:29:54;;;;;;;11.82;3.60;;;36.70;26.90;;;;;;4151380;28;20214;-80
2022/06/19 11:32:09;;;;;;;12.15;3.15;;;36.80;27.00;;;;;;4146906;28;20234;-80
2022/06/19 11:36:40;;;;;;;15.05;3.55;;;37.20;26.60;;;;;;4152739;28;20234;-80
2022/06/19 11:38:45;;;;;;;9.30;3.55;;;37.40;26.60;;;;;;4159948;28;20674;-81
2022/06/19 11:40:49;;;;;;;13.05;3.40;;;37.40;26.30;;;;;;4159593;28;20203;-80
2022/06/19 11:42:53;;;;;;;11.65;3.55;;;37.60;26.50;;;;;;4154861;28;20232;-80
2022/06/19 11:44:58;;;;;;;16.25;3.15;;;37.70;26.50;;;;;;4142303;28;20666;-80
2022/06/19 11:46:59;;;;;;;14.43;3.72;;;37.70;26.50;;;;;;4144764;28;20290;-80
2022/06/19 11:49:27;;;;;;;10.50;3.42;;;37.90;26.90;;;;;;4151774;28;20352;-80
2022/06/19 11:51:31;;;;;;;11.80;3.30;;;37.90;26.50;;;;;;4137444;28;20725;-80
2022/06/19 11:53:42;;;;;;;11.98;3.05;;;38.20;26.30;;;;;;4146659;28;20557;-80
2022/06/19 11:55:46;;;;;;;11.30;3.22;;;38.40;26.30;;;;;;4147091;28;20238;-80
2022/06/19 11:57:52;;;;;;;8.48;3.15;;;38.50;26.10;;;;;;4148615;28;20220;-79
2022/06/19 11:59:56;;;;;;;13.32;3.75;;;38.60;26.10;;;;;;4148560;28;20653;-79
2022/06/19 12:02:00;;;;;;;11.60;3.40;;;38.50;26.10;;;;;;4147831;28;20290;-79
2022/06/19 12:04:06;;;;;;;10.77;3.55;;;38.50;26.40;;;;;;4147707;28;20291;-79
2022/06/19 12:06:11;;;;;;;10.60;3.05;;;38.40;26.40;;;;;;4145260;28;20700;-79
2022/06/19 12:08:21;;;;;;;9.18;3.20;;;38.60;26.60;;;;;;4145356;28;20242;-79
2022/06/19 12:10:26;;;;;;;9.65;3.05;;;38.70;26.50;;;;;;4146145;28;20624;-79
2022/06/19 12:12:31;;;;;;;12.80;3.65;;;38.70;26.50;;;;;;4131559;28;20255;-79
2022/06/19 12:14:37;;;;;;;10.27;3.33;;;39.00;26.60;;;;;;4146491;28;20211;-79
2022/06/19 12:16:39;;;;;;;10.90;3.40;;;39.20;26.50;;;;;;4142585;28;20211;-80
2022/06/19 12:18:41;;;;;;;11.65;3.65;;;39.60;26.40;;;;;;4144967;28;20623;-79
2022/06/19 12:20:44;;;;;;;10.93;3.50;;;40.00;26.20;;;;;;4135026;28;20220;-80
2022/06/19 12:22:51;;;;;;;10.93;3.50;;;40.30;26.20;;;;;;4143935;28;20659;-80
2022/06/19 12:25:00;;;;;;;11.40;3.72;;;40.50;25.70;;;;;;4143933;28;20273;-79
2022/06/19 12:27:04;;;;;;;9.43;3.13;;;40.60;25.60;;;;;;4141225;28;20577;-79
2022/06/19 12:29:21;;;;;;;12.77;3.50;;;40.90;25.10;;;;;;4149685;28;20539;-79
2022/06/19 12:31:36;;;;;;;9.55;3.10;;;41.20;25.00;;;;;;4142019;28;20211;-80
2022/06/19 12:33:45;;;;;;;10.32;3.22;;;41.40;24.90;;;;;;4150123;28;20210;-80
2022/06/19 12:35:49;;;;;;;11.43;3.25;;;41.40;25.00;;;;;;4139537;28;20618;-80
2022/06/19 12:37:50;;;;;;;17.90;4.00;;;41.70;24.90;;;;;;4148297;28;20208;-80
2022/06/19 12:39:54;;;;;;;12.65;3.55;;;41.70;24.70;;;;;;4148362;28;20219;-80
2022/06/19 12:42:04;;;;;;;11.25;3.55;;;41.80;24.90;;;;;;4146826;28;20234;-79
2022/06/19 12:44:17;;;;;;;11.65;3.05;;;42.00;25.10;;;;;;4146181;28;20642;-80
2022/06/19 12:46:31;;;;;;;12.40;3.15;;;42.30;24.70;;;;;;4139449;28;20258;-79
2022/06/19 12:48:45;;;;;;;17.02;3.63;;;42.40;24.50;;;;;;4140434;28;20204;-80
2022/06/19 12:50:54;;;;;;;13.00;3.78;;;42.50;24.60;;;;;;4139207;28;20209;-80
2022/06/19 12:53:12;;;;;;;12.18;3.60;;;42.50;24.80;;;;;;4145258;28;20227;-81
2022/06/19 12:55:28;;;;;;;9.88;3.35;;;42.40;24.90;;;;;;4141141;28;20640;-80
2022/06/19 12:57:50;;;;;;;11.40;3.17;;;42.60;24.70;;;;;;4143812;28;20203;-80
2022/06/19 13:00:11;;;;;;;17.73;3.60;;;42.50;24.60;;;;;;4146261;28;20652;-80
2022/06/19 13:02:30;;;;;;;14.20;3.58;;;43.00;24.70;;;;;;4152008;28;20230;-80
2022/06/19 13:04:47;;;;;;;9.55;3.22;;;43.00;24.50;;;;;;4141224;28;20199;-80
2022/06/19 13:07:06;;;;;;;9.98;3.58;;;43.30;24.40;;;;;;4137847;28;20277;-80
2022/06/19 13:09:28;;;;;;;12.63;3.63;;;43.00;24.20;;;;;;4145276;28;20203;-80
2022/06/19 13:11:41;;;;;;;9.30;2.90;;;43.30;24.10;;;;;;4134959;28;20203;-80
2022/06/19 13:14:19;;;;;;;9.65;2.85;;;43.50;24.30;;;;;;4139482;28;20217;-80
2022/06/19 13:16:27;;;;;;;12.02;3.30;;;43.70;25.20;;;;;;4144313;28;20218;-80
2022/06/19 13:18:57;;;;;;;9.88;2.70;;;43.60;25.80;;;;;;4145567;28;20230;-80
2022/06/19 13:21:01;;;;;;;11.70;2.72;;;44.00;25.80;;;;;;4148707;28;20228;-80
2022/06/19 13:23:17;;;;;;;10.73;3.45;;;44.20;25.70;;;;;;4143333;28;20220;-81
2022/06/19 13:25:27;;;;;;;8.75;2.63;;;44.40;25.30;;;;;;4139798;28;20250;-81
2022/06/19 13:27:42;;;;;;;6.95;2.58;;;44.80;25.30;;;;;;4138971;28;20238;-79